Terminal Aerodrome Forecast
Issued by NWS Brownsville, TX

Home | Current Version | Previous Version | Text Only | Print | Product List | Glossary On
Versions: 1 2 3 4 5 6 7 8 9 10 11 12 13 14 15 16 17 18 19 20
000
FTUS44 KBRO 212300
TAFHRL
TAF
KHRL 212323Z 2200/2224 07008KT P6SM VCSH FEW025 SCT250
     FM220400 VRB04KT P6SM SCT020
     FM221800 07015G21KT P6SM SCT035=

USA.gov is the U.S. government's official web portal to all federal, state and local government web resources and services.